createdAt,value
2017-11-17T00:00:32.429Z,48.80
2017-11-17T00:03:58.558Z,48.90
2017-11-17T00:07:22.111Z,48.90
2017-11-17T00:10:45.612Z,48.70
2017-11-17T00:14:09.171Z,48.70
2017-11-17T00:17:32.680Z,48.70
2017-11-17T00:20:57.914Z,48.90
2017-11-17T00:24:21.429Z,48.80
2017-11-17T00:27:46.038Z,48.80
2017-11-17T00:31:09.618Z,48.80
2017-11-17T00:34:37.956Z,48.90
2017-11-17T00:38:01.770Z,48.80
2017-11-17T00:41:29.708Z,48.90
2017-11-17T00:44:54.101Z,48.90
2017-11-17T00:48:18.444Z,49.00
2017-11-17T00:51:41.905Z,49.00
2017-11-17T00:55:05.638Z,49.00
2017-11-17T00:58:29.507Z,49.20
2017-11-17T01:01:53.740Z,49.10
2017-11-17T01:05:17.438Z,49.10
2017-11-17T01:08:40.899Z,49.00
2017-11-17T01:12:04.396Z,49.00
2017-11-17T01:15:29.525Z,49.60
2017-11-17T01:18:54.591Z,49.10
2017-11-17T01:22:19.405Z,49.10
2017-11-17T01:25:42.895Z,49.10
2017-11-17T01:29:07.218Z,49.30
2017-11-17T01:32:31.786Z,49.10
2017-11-17T01:35:56.766Z,49.20
2017-11-17T01:39:21.274Z,49.20
2017-11-17T01:42:45.585Z,49.20
2017-11-17T01:46:09.987Z,49.30
2017-11-17T01:49:34.753Z,49.30
2017-11-17T01:52:58.293Z,49.30
2017-11-17T01:56:22.989Z,49.50
2017-11-17T01:59:46.496Z,49.50
2017-11-17T02:03:10.499Z,49.40
2017-11-17T02:06:34.729Z,49.60
2017-11-17T02:09:58.944Z,49.50
2017-11-17T02:13:22.395Z,49.60
2017-11-17T02:16:46.710Z,49.60
2017-11-17T02:20:10.565Z,49.70
2017-11-17T02:23:34.525Z,49.70
2017-11-17T02:26:58.772Z,49.70
2017-11-17T02:30:22.316Z,49.70
2017-11-17T02:33:45.763Z,49.80
2017-11-17T02:37:11.591Z,49.70
2017-11-17T02:40:35.834Z,49.70
2017-11-17T02:43:59.273Z,49.60
2017-11-17T02:47:22.745Z,49.80
2017-11-17T02:50:46.209Z,49.80
2017-11-17T02:54:09.671Z,49.80
2017-11-17T02:57:33.146Z,49.80
2017-11-17T03:00:56.626Z,49.90
2017-11-17T03:04:21.202Z,49.70
2017-11-17T03:07:45.656Z,50.00
2017-11-17T03:11:09.115Z,50.00
2017-11-17T03:14:32.941Z,50.00
2017-11-17T03:17:57.183Z,50.00
2017-11-17T03:21:20.643Z,50.00
2017-11-17T03:24:44.119Z,50.00
2017-11-17T03:28:07.973Z,50.00
2017-11-17T03:31:31.494Z,50.10
2017-11-17T03:34:54.976Z,50.00
2017-11-17T03:38:18.455Z,50.00
2017-11-17T03:41:41.975Z,50.00
2017-11-17T03:45:05.442Z,50.10
2017-11-17T03:48:28.892Z,50.10
2017-11-17T03:51:53.118Z,50.00
2017-11-17T03:55:16.584Z,50.00
2017-11-17T03:58:40.075Z,50.00
2017-11-17T04:02:03.560Z,50.00
2017-11-17T04:05:27.102Z,50.10
2017-11-17T04:08:51.290Z,50.10
2017-11-17T04:12:14.757Z,50.00
2017-11-17T04:15:38.297Z,50.10
2017-11-17T04:19:02.632Z,50.10
2017-11-17T04:22:26.104Z,50.10
2017-11-17T04:25:49.592Z,50.20
2017-11-17T04:29:13.091Z,50.00
2017-11-17T04:32:36.553Z,50.00
2017-11-17T04:36:00.005Z,50.10
2017-11-17T04:39:23.511Z,50.10
2017-11-17T04:42:46.951Z,50.20
2017-11-17T04:46:10.424Z,50.00
2017-11-17T04:49:33.906Z,50.10
2017-11-17T04:52:57.393Z,50.20
2017-11-17T04:56:20.858Z,50.10
2017-11-17T04:59:44.347Z,50.60
2017-11-17T05:03:07.827Z,50.00
2017-11-17T05:06:31.460Z,50.20
2017-11-17T05:09:54.935Z,48.60
2017-11-17T05:13:18.432Z,47.80
2017-11-17T05:16:41.940Z,47.30
2017-11-17T05:20:05.435Z,46.80
2017-11-17T05:23:28.912Z,45.20
2017-11-17T05:26:52.396Z,44.10
2017-11-17T05:30:17.369Z,42.60
2017-11-17T05:33:40.832Z,42.60
2017-11-17T05:37:04.317Z,42.00
2017-11-17T05:40:27.862Z,41.40
2017-11-17T05:43:52.221Z,40.70
2017-11-17T05:47:16.452Z,40.40
2017-11-17T05:50:39.930Z,40.40
2017-11-17T05:54:03.400Z,40.20
2017-11-17T05:57:26.894Z,39.90
2017-11-17T06:00:50.409Z,39.70
2017-11-17T06:04:15.379Z,39.40
2017-11-17T06:07:38.894Z,39.40
2017-11-17T06:11:02.377Z,39.30
2017-11-17T06:14:26.696Z,39.00
2017-11-17T06:17:50.188Z,38.90
2017-11-17T06:21:13.693Z,38.90
2017-11-17T06:24:37.170Z,39.00
2017-11-17T06:28:00.656Z,38.70
2017-11-17T06:31:24.895Z,38.80
2017-11-17T06:34:48.353Z,38.70
2017-11-17T06:38:11.860Z,38.70
2017-11-17T06:41:35.364Z,38.70
2017-11-17T06:44:59.654Z,38.90
2017-11-17T06:48:23.911Z,39.00
2017-11-17T06:51:48.183Z,39.10
2017-11-17T06:55:11.652Z,39.10
2017-11-17T06:58:35.203Z,39.20
2017-11-17T07:01:59.640Z,39.80
2017-11-17T07:05:23.201Z,39.80
2017-11-17T07:08:46.742Z,40.00
2017-11-17T07:12:10.280Z,40.40
2017-11-17T07:15:33.769Z,40.80
2017-11-17T07:18:57.325Z,41.20
2017-11-17T07:22:20.851Z,41.60
2017-11-17T07:25:44.359Z,42.00
2017-11-17T07:29:07.808Z,42.50
2017-11-17T07:32:31.300Z,42.80
2017-11-17T07:35:54.746Z,43.20
2017-11-17T07:39:18.244Z,43.40
2017-11-17T07:42:41.718Z,43.90
2017-11-17T07:46:05.184Z,44.40
2017-11-17T07:49:28.748Z,44.80
2017-11-17T07:52:52.220Z,45.10
2017-11-17T07:56:15.689Z,45.50
2017-11-17T07:59:39.178Z,45.80
2017-11-17T08:03:02.646Z,46.10
2017-11-17T08:06:26.124Z,46.30
2017-11-17T08:09:50.427Z,47.00
2017-11-17T08:13:14.676Z,45.70
2017-11-17T08:16:38.135Z,45.60
2017-11-17T08:20:01.604Z,45.40
2017-11-17T08:23:25.095Z,44.90
2017-11-17T08:26:48.565Z,43.90
2017-11-17T08:30:12.861Z,43.10
2017-11-17T08:33:36.332Z,42.20
2017-11-17T08:36:59.835Z,41.40
2017-11-17T08:40:23.382Z,41.00
2017-11-17T08:43:46.817Z,40.60
2017-11-17T08:47:10.329Z,40.00
2017-11-17T08:50:33.840Z,39.70
2017-11-17T08:53:58.254Z,39.20
2017-11-17T08:57:22.465Z,39.10
2017-11-17T09:00:45.892Z,39.10
2017-11-17T09:04:10.360Z,38.50
2017-11-17T09:07:33.840Z,38.50
2017-11-17T09:10:58.147Z,38.30
2017-11-17T09:14:21.855Z,38.30
2017-11-17T09:17:45.355Z,38.30
2017-11-17T09:21:08.824Z,38.30
2017-11-17T09:24:32.334Z,38.00
2017-11-17T09:27:55.795Z,37.90
2017-11-17T09:31:19.415Z,38.00
2017-11-17T09:34:42.978Z,37.80
2017-11-17T09:38:06.536Z,37.70
2017-11-17T09:41:30.875Z,37.60
2017-11-17T09:44:54.348Z,37.60
2017-11-17T09:48:17.804Z,37.70
2017-11-17T09:51:41.291Z,37.90
2017-11-17T09:55:04.792Z,37.70
2017-11-17T09:58:28.297Z,37.70
2017-11-17T10:01:51.960Z,37.80
2017-11-17T10:05:15.443Z,37.70
2017-11-17T10:08:38.923Z,37.70
2017-11-17T10:12:02.391Z,37.80
2017-11-17T10:15:26.056Z,37.90
2017-11-17T10:18:49.533Z,37.80
2017-11-17T10:22:13.033Z,37.90
2017-11-17T10:25:36.557Z,37.90
2017-11-17T10:29:00.173Z,37.90
2017-11-17T10:32:23.791Z,37.90
2017-11-17T10:35:47.308Z,37.90
2017-11-17T10:39:11.537Z,38.10
2017-11-17T10:42:35.042Z,38.10
2017-11-17T10:45:58.472Z,38.10
2017-11-17T10:49:22.028Z,38.20
2017-11-17T10:52:46.245Z,38.40
2017-11-17T10:56:25.480Z,38.30
2017-11-17T10:59:49.043Z,38.40
2017-11-17T11:03:12.515Z,38.50
2017-11-17T11:06:36.293Z,38.70
2017-11-17T11:09:59.772Z,38.70
2017-11-17T11:13:23.290Z,38.60
2017-11-17T11:16:47.555Z,38.70
2017-11-17T11:20:11.017Z,38.60
2017-11-17T11:23:35.097Z,38.60
2017-11-17T11:26:58.613Z,38.70
2017-11-17T11:30:22.906Z,39.30
2017-11-17T11:33:47.174Z,39.50
2017-11-17T11:37:11.726Z,39.80
2017-11-17T11:40:35.234Z,39.90
2017-11-17T11:43:58.912Z,40.10
2017-11-17T11:47:22.381Z,40.50
2017-11-17T11:50:45.885Z,40.80
2017-11-17T11:54:09.374Z,41.20
2017-11-17T11:57:34.136Z,41.40
2017-11-17T12:00:57.580Z,41.30
2017-11-17T12:04:21.355Z,41.40
2017-11-17T12:07:45.548Z,41.60
2017-11-17T12:11:09.032Z,41.60
2017-11-17T12:14:32.527Z,41.80
2017-11-17T12:17:56.775Z,42.10
2017-11-17T12:21:20.318Z,42.10
2017-11-17T12:24:43.826Z,42.30
2017-11-17T12:28:07.312Z,42.60
2017-11-17T12:31:30.785Z,42.70
2017-11-17T12:34:54.255Z,42.90
2017-11-17T12:38:17.843Z,43.10
2017-11-17T12:41:41.335Z,43.50
2017-11-17T12:45:04.828Z,43.70
2017-11-17T12:48:29.146Z,44.30
2017-11-17T12:51:52.671Z,44.20
2017-11-17T12:55:18.016Z,44.80
2017-11-17T12:58:41.484Z,44.80
2017-11-17T13:02:05.756Z,45.50
2017-11-17T13:05:30.052Z,45.60
2017-11-17T13:08:54.332Z,45.80
2017-11-17T13:12:17.813Z,45.70
2017-11-17T13:15:42.088Z,46.10
2017-11-17T13:19:05.562Z,46.10
2017-11-17T13:22:29.085Z,46.20
2017-11-17T13:25:52.599Z,46.50
2017-11-17T13:29:16.084Z,46.40
2017-11-17T13:32:40.364Z,46.80
2017-11-17T13:36:03.943Z,46.80
2017-11-17T13:39:28.055Z,46.90
2017-11-17T13:42:51.573Z,47.10
2017-11-17T13:46:15.181Z,47.10
2017-11-17T13:49:38.676Z,47.40
2017-11-17T13:53:03.829Z,47.60
2017-11-17T13:56:27.262Z,47.50
2017-11-17T13:59:51.525Z,47.60
2017-11-17T14:03:15.076Z,47.60
2017-11-17T14:06:38.560Z,47.70
2017-11-17T14:10:02.049Z,47.70
2017-11-17T14:13:26.290Z,48.40
2017-11-17T14:16:49.777Z,47.90
2017-11-17T14:20:13.450Z,47.70
2017-11-17T14:23:36.953Z,47.80
2017-11-17T14:27:00.477Z,47.90
2017-11-17T14:30:23.984Z,48.10
2017-11-17T14:33:47.442Z,48.20
2017-11-17T14:37:10.932Z,48.30
2017-11-17T14:40:34.422Z,48.50
2017-11-17T14:43:58.038Z,48.80
2017-11-17T14:47:21.831Z,48.70
2017-11-17T14:50:45.421Z,48.70
2017-11-17T14:54:08.906Z,48.60
2017-11-17T14:57:32.450Z,48.80
2017-11-17T15:00:56.036Z,47.30
2017-11-17T15:04:19.535Z,43.80
2017-11-17T15:07:43.032Z,41.90
2017-11-17T15:11:07.311Z,43.90
2017-11-17T15:14:32.311Z,43.80
2017-11-17T15:17:56.565Z,42.60
2017-11-17T15:21:20.041Z,42.30
2017-11-17T15:24:43.533Z,43.80
2017-11-17T15:28:07.834Z,47.00
2017-11-17T15:31:32.085Z,47.50
2017-11-17T15:34:55.605Z,47.30
2017-11-17T15:38:19.156Z,47.00
2017-11-17T15:41:42.656Z,46.90
2017-11-17T15:45:06.226Z,46.50
2017-11-17T15:48:30.502Z,46.10
2017-11-17T15:51:54.027Z,46.10
2017-11-17T15:55:17.618Z,45.80
2017-11-17T15:58:41.131Z,45.40
2017-11-17T16:02:04.981Z,45.00
2017-11-17T16:05:28.481Z,44.70
2017-11-17T16:08:53.515Z,43.90
2017-11-17T16:12:17.044Z,43.90
2017-11-17T16:15:40.563Z,43.70
2017-11-17T16:19:04.048Z,43.30
2017-11-17T16:22:27.574Z,43.10
2017-11-17T16:25:51.049Z,42.90
2017-11-17T16:29:14.524Z,42.90
2017-11-17T16:32:38.831Z,42.80
2017-11-17T16:36:03.091Z,42.50
2017-11-17T16:39:26.582Z,42.40
2017-11-17T16:42:50.854Z,42.50
2017-11-17T16:46:14.333Z,42.50
2017-11-17T16:49:38.879Z,42.50
2017-11-17T16:53:02.391Z,42.60
2017-11-17T16:56:25.880Z,42.60
2017-11-17T16:59:50.318Z,43.80
2017-11-17T17:03:13.864Z,43.10
2017-11-17T17:06:38.140Z,43.80
2017-11-17T17:10:01.852Z,43.70
2017-11-17T17:13:25.340Z,43.90
2017-11-17T17:16:48.951Z,43.50
2017-11-17T17:20:12.440Z,43.50
2017-11-17T17:23:36.717Z,43.40
2017-11-17T17:27:00.276Z,43.40
2017-11-17T17:30:23.815Z,43.40
2017-11-17T17:33:47.337Z,43.30
2017-11-17T17:37:10.907Z,43.10
2017-11-17T17:40:35.037Z,43.80
2017-11-17T17:43:58.554Z,43.10
2017-11-17T17:47:22.081Z,43.10
2017-11-17T17:50:46.370Z,43.10
2017-11-17T17:54:09.875Z,43.00
2017-11-17T17:57:33.702Z,43.00
2017-11-17T18:00:57.176Z,43.10
2017-11-17T18:04:20.649Z,42.80
2017-11-17T18:07:44.958Z,42.70
2017-11-17T18:11:08.481Z,42.80
2017-11-17T18:14:31.986Z,42.80
2017-11-17T18:17:56.235Z,43.00
2017-11-17T18:21:19.870Z,43.00
2017-11-17T18:24:43.371Z,42.70
2017-11-17T18:28:06.889Z,42.90
2017-11-17T18:31:30.396Z,43.10
2017-11-17T18:34:54.025Z,43.30
2017-11-17T18:38:17.755Z,43.60
2017-11-17T18:41:41.846Z,44.20
2017-11-17T18:45:06.071Z,45.10
2017-11-17T18:48:29.605Z,45.10
2017-11-17T18:51:53.149Z,45.30
2017-11-17T18:55:16.702Z,45.50
2017-11-17T18:58:41.083Z,45.00
2017-11-17T19:02:06.152Z,44.50
2017-11-17T19:05:30.378Z,44.50
2017-11-17T19:08:53.937Z,44.40
2017-11-17T19:12:17.510Z,44.40
2017-11-17T19:15:40.957Z,44.10
2017-11-17T19:19:04.456Z,44.00
2017-11-17T19:22:28.032Z,43.90
2017-11-17T19:25:51.575Z,43.90
2017-11-17T19:29:15.111Z,43.90
2017-11-17T19:32:38.627Z,43.60
2017-11-17T19:36:02.138Z,43.60
2017-11-17T19:39:25.783Z,43.60
2017-11-17T19:42:49.256Z,43.60
2017-11-17T19:46:12.775Z,43.70
2017-11-17T19:49:36.331Z,44.00
2017-11-17T19:52:59.874Z,44.30
2017-11-17T19:56:23.447Z,45.00
2017-11-17T19:59:47.079Z,45.40
2017-11-17T20:03:10.650Z,45.80
2017-11-17T20:06:34.251Z,45.60
2017-11-17T20:09:58.551Z,45.70
2017-11-17T20:13:22.284Z,45.70
2017-11-17T20:16:45.777Z,45.70
2017-11-17T20:20:09.253Z,45.80
2017-11-17T20:23:33.669Z,45.40
2017-11-17T20:26:57.198Z,45.30
2017-11-17T20:30:22.345Z,45.50
2017-11-17T20:33:46.582Z,45.80
2017-11-17T20:37:10.221Z,45.80
2017-11-17T20:40:33.817Z,45.20
2017-11-17T20:43:57.339Z,45.00
2017-11-17T20:47:20.849Z,44.70
2017-11-17T20:50:45.529Z,44.50
2017-11-17T20:54:09.787Z,44.30
2017-11-17T20:57:33.325Z,44.30
2017-11-17T21:00:56.951Z,44.20
2017-11-17T21:04:21.340Z,44.10
2017-11-17T21:07:44.988Z,44.10
2017-11-17T21:11:08.480Z,44.60
2017-11-17T21:14:31.977Z,44.20
2017-11-17T21:17:55.524Z,44.30
2017-11-17T21:21:19.159Z,44.40
2017-11-17T21:24:42.660Z,44.50
2017-11-17T21:28:06.203Z,44.80
2017-11-17T21:31:29.695Z,45.20
2017-11-17T21:34:53.132Z,45.40
2017-11-17T21:38:16.733Z,45.50
2017-11-17T21:41:40.211Z,45.80
2017-11-17T21:45:03.801Z,45.90
2017-11-17T21:48:27.714Z,46.20
2017-11-17T21:51:51.978Z,46.30
2017-11-17T21:55:16.332Z,46.50
2017-11-17T21:58:39.816Z,47.00
2017-11-17T22:02:03.361Z,46.50
2017-11-17T22:05:26.841Z,46.70
2017-11-17T22:08:50.407Z,46.70
2017-11-17T22:12:14.665Z,47.00
2017-11-17T22:15:38.392Z,47.00
2017-11-17T22:19:01.880Z,47.20
2017-11-17T22:22:25.443Z,47.20
2017-11-17T22:25:49.009Z,47.30
2017-11-17T22:29:12.469Z,47.40
2017-11-17T22:32:35.981Z,47.50
2017-11-17T22:35:59.475Z,47.50
2017-11-17T22:39:23.838Z,47.60
2017-11-17T22:42:47.364Z,47.60
2017-11-17T22:46:10.947Z,47.80
2017-11-17T22:49:34.432Z,47.80
2017-11-17T22:52:58.093Z,47.80
2017-11-17T22:56:21.560Z,47.90
2017-11-17T22:59:45.040Z,48.00
2017-11-17T23:03:08.837Z,48.10
2017-11-17T23:06:32.314Z,48.10
2017-11-17T23:09:55.801Z,48.20
2017-11-17T23:13:19.281Z,48.20
2017-11-17T23:16:42.764Z,48.20
2017-11-17T23:20:06.382Z,48.10
2017-11-17T23:23:29.857Z,48.10
2017-11-17T23:26:53.343Z,48.30
2017-11-17T23:30:16.905Z,48.20
2017-11-17T23:33:40.406Z,48.30
2017-11-17T23:37:03.895Z,48.20
2017-11-17T23:40:27.366Z,48.30
2017-11-17T23:43:50.839Z,48.30
2017-11-17T23:47:14.309Z,48.20
2017-11-17T23:50:37.823Z,48.30
2017-11-17T23:54:01.304Z,48.30
2017-11-17T23:57:24.863Z,48.20
